Terminal Aerodrome Forecast
Issued by NWS Spokane, WA

Home | Current Version | Previous Version | Text Only | Print | Product List | Glossary On
Versions: 1 2 3 4 5 6 7 8 9 10 11 12 13 14 15 16 17
000
FTUS46 KOTX 260530
TAFEAT
TAF
KEAT 260530Z 2606/2706 35006KT P6SM BKN200
     FM261800 VRB04KT P6SM -RA BKN050 OVC100
     FM262000 12004KT P6SM -RA BKN025 OVC050
     FM270200 VRB03KT P6SM VCSH SCT030 OVC050=

USA.gov is the U.S. government's official web portal to all federal, state and local government web resources and services.